sensor_id;sensor_type;location;lat;lon;timestamp;P1;durP1;ratioP1;P2;durP2;ratioP2
70301;SDS011;57706;56.326;43.882;2023-02-19T00:02:04;19.70;;;8.38;;
70301;SDS011;57706;56.326;43.882;2023-02-19T00:04:30;21.90;;;8.32;;
70301;SDS011;57706;56.326;43.882;2023-02-19T00:06:56;18.77;;;7.47;;
70301;SDS011;57706;56.326;43.882;2023-02-19T00:11:47;17.17;;;7.57;;
70301;SDS011;57706;56.326;43.882;2023-02-19T00:14:15;19.08;;;7.72;;
70301;SDS011;57706;56.326;43.882;2023-02-19T00:16:42;18.48;;;7.60;;
70301;SDS011;57706;56.326;43.882;2023-02-19T00:19:11;17.33;;;7.93;;
70301;SDS011;57706;56.326;43.882;2023-02-19T00:21:57;16.98;;;7.50;;
70301;SDS011;57706;56.326;43.882;2023-02-19T00:24:23;21.15;;;7.95;;
70301;SDS011;57706;56.326;43.882;2023-02-19T00:26:49;20.23;;;7.65;;
70301;SDS011;57706;56.326;43.882;2023-02-19T00:29:16;17.23;;;7.93;;
70301;SDS011;57706;56.326;43.882;2023-02-19T00:31:44;24.85;;;8.82;;
70301;SDS011;57706;56.326;43.882;2023-02-19T00:34:11;23.73;;;8.05;;
70301;SDS011;57706;56.326;43.882;2023-02-19T00:36:38;19.92;;;8.20;;
70301;SDS011;57706;56.326;43.882;2023-02-19T00:39:05;20.25;;;7.95;;
70301;SDS011;57706;56.326;43.882;2023-02-19T00:41:32;16.52;;;7.50;;
70301;SDS011;57706;56.326;43.882;2023-02-19T00:44:00;17.38;;;7.97;;
70301;SDS011;57706;56.326;43.882;2023-02-19T00:46:49;16.67;;;7.45;;
70301;SDS011;57706;56.326;43.882;2023-02-19T00:49:19;19.30;;;7.68;;
70301;SDS011;57706;56.326;43.882;2023-02-19T00:51:47;19.83;;;7.68;;
70301;SDS011;57706;56.326;43.882;2023-02-19T00:54:14;20.92;;;8.85;;
70301;SDS011;57706;56.326;43.882;2023-02-19T00:56:40;22.70;;;8.23;;
70301;SDS011;57706;56.326;43.882;2023-02-19T00:59:06;16.67;;;7.07;;
70301;SDS011;57706;56.326;43.882;2023-02-19T01:01:32;21.10;;;8.40;;
70301;SDS011;57706;56.326;43.882;2023-02-19T01:03:58;17.48;;;7.93;;
70301;SDS011;57706;56.326;43.882;2023-02-19T01:06:24;19.55;;;8.02;;
70301;SDS011;57706;56.326;43.882;2023-02-19T01:08:50;19.80;;;8.65;;
70301;SDS011;57706;56.326;43.882;2023-02-19T01:11:16;19.73;;;8.00;;
70301;SDS011;57706;56.326;43.882;2023-02-19T01:13:43;23.35;;;8.27;;
70301;SDS011;57706;56.326;43.882;2023-02-19T01:16:12;20.98;;;9.43;;
70301;SDS011;57706;56.326;43.882;2023-02-19T01:18:41;23.25;;;8.75;;
70301;SDS011;57706;56.326;43.882;2023-02-19T01:21:08;19.35;;;8.68;;
70301;SDS011;57706;56.326;43.882;2023-02-19T01:23:37;19.63;;;8.18;;
70301;SDS011;57706;56.326;43.882;2023-02-19T01:26:04;20.15;;;8.50;;
70301;SDS011;57706;56.326;43.882;2023-02-19T01:28:31;18.25;;;8.18;;
70301;SDS011;57706;56.326;43.882;2023-02-19T01:31:01;18.50;;;7.68;;
70301;SDS011;57706;56.326;43.882;2023-02-19T01:33:28;22.95;;;8.20;;
70301;SDS011;57706;56.326;43.882;2023-02-19T01:35:55;19.48;;;7.72;;
70301;SDS011;57706;56.326;43.882;2023-02-19T01:40:53;20.25;;;7.85;;
70301;SDS011;57706;56.326;43.882;2023-02-19T01:43:33;19.40;;;7.10;;
70301;SDS011;57706;56.326;43.882;2023-02-19T01:46:00;14.98;;;6.60;;
70301;SDS011;57706;56.326;43.882;2023-02-19T01:51:05;21.15;;;7.88;;
70301;SDS011;57706;56.326;43.882;2023-02-19T01:53:36;17.15;;;7.00;;
70301;SDS011;57706;56.326;43.882;2023-02-19T01:56:06;15.48;;;7.15;;
70301;SDS011;57706;56.326;43.882;2023-02-19T01:58:33;19.80;;;7.50;;
70301;SDS011;57706;56.326;43.882;2023-02-19T02:01:02;19.05;;;7.68;;
70301;SDS011;57706;56.326;43.882;2023-02-19T02:03:49;17.48;;;6.65;;
70301;SDS011;57706;56.326;43.882;2023-02-19T02:06:20;20.98;;;8.43;;
70301;SDS011;57706;56.326;43.882;2023-02-19T02:08:51;17.58;;;7.35;;
70301;SDS011;57706;56.326;43.882;2023-02-19T02:11:38;21.02;;;7.85;;
70301;SDS011;57706;56.326;43.882;2023-02-19T02:14:08;18.40;;;7.57;;
70301;SDS011;57706;56.326;43.882;2023-02-19T02:36:28;16.95;;;7.13;;
70301;SDS011;57706;56.326;43.882;2023-02-19T02:39:01;16.83;;;7.10;;
70301;SDS011;57706;56.326;43.882;2023-02-19T02:41:35;19.83;;;6.85;;
70301;SDS011;57706;56.326;43.882;2023-02-19T02:44:09;19.77;;;8.25;;
70301;SDS011;57706;56.326;43.882;2023-02-19T02:46:37;19.75;;;8.07;;
70301;SDS011;57706;56.326;43.882;2023-02-19T02:49:18;18.63;;;8.20;;
70301;SDS011;57706;56.326;43.882;2023-02-19T02:51:48;20.70;;;8.07;;
70301;SDS011;57706;56.326;43.882;2023-02-19T02:54:25;16.67;;;7.63;;
70301;SDS011;57706;56.326;43.882;2023-02-19T02:57:16;17.13;;;7.25;;
70301;SDS011;57706;56.326;43.882;2023-02-19T02:59:54;19.75;;;8.18;;
70301;SDS011;57706;56.326;43.882;2023-02-19T03:02:23;20.63;;;8.50;;
70301;SDS011;57706;56.326;43.882;2023-02-19T03:05:12;16.52;;;7.10;;
70301;SDS011;57706;56.326;43.882;2023-02-19T03:08:08;17.85;;;7.50;;
70301;SDS011;57706;56.326;43.882;2023-02-19T03:11:00;18.45;;;7.45;;
70301;SDS011;57706;56.326;43.882;2023-02-19T03:13:52;20.92;;;7.75;;
70301;SDS011;57706;56.326;43.882;2023-02-19T03:16:44;21.15;;;7.88;;
70301;SDS011;57706;56.326;43.882;2023-02-19T03:19:32;22.85;;;7.85;;
70301;SDS011;57706;56.326;43.882;2023-02-19T03:22:06;19.25;;;7.50;;
70301;SDS011;57706;56.326;43.882;2023-02-19T03:25:01;17.40;;;8.10;;
70301;SDS011;57706;56.326;43.882;2023-02-19T03:27:52;22.23;;;7.85;;
70301;SDS011;57706;56.326;43.882;2023-02-19T03:30:22;20.10;;;7.13;;
70301;SDS011;57706;56.326;43.882;2023-02-19T03:33:00;17.75;;;7.10;;
70301;SDS011;57706;56.326;43.882;2023-02-19T03:35:39;18.40;;;7.25;;
70301;SDS011;57706;56.326;43.882;2023-02-19T03:38:47;19.80;;;6.88;;
70301;SDS011;57706;56.326;43.882;2023-02-19T03:46:45;18.67;;;7.45;;
70301;SDS011;57706;56.326;43.882;2023-02-19T03:49:31;16.23;;;6.97;;
70301;SDS011;57706;56.326;43.882;2023-02-19T03:54:55;18.20;;;6.53;;
70301;SDS011;57706;56.326;43.882;2023-02-19T03:57:34;17.92;;;7.07;;
70301;SDS011;57706;56.326;43.882;2023-02-19T04:00:20;14.93;;;6.55;;
70301;SDS011;57706;56.326;43.882;2023-02-19T04:02:53;17.00;;;7.32;;
70301;SDS011;57706;56.326;43.882;2023-02-19T04:05:36;21.50;;;7.15;;
70301;SDS011;57706;56.326;43.882;2023-02-19T04:08:13;19.05;;;7.13;;
70301;SDS011;57706;56.326;43.882;2023-02-19T04:10:47;16.42;;;7.18;;
70301;SDS011;57706;56.326;43.882;2023-02-19T04:13:16;19.10;;;7.63;;
70301;SDS011;57706;56.326;43.882;2023-02-19T04:15:46;18.95;;;7.25;;
70301;SDS011;57706;56.326;43.882;2023-02-19T04:18:15;17.17;;;6.88;;
70301;SDS011;57706;56.326;43.882;2023-02-19T04:20:45;17.58;;;7.40;;
70301;SDS011;57706;56.326;43.882;2023-02-19T04:23:13;16.90;;;7.53;;
70301;SDS011;57706;56.326;43.882;2023-02-19T04:25:43;17.95;;;7.53;;
70301;SDS011;57706;56.326;43.882;2023-02-19T04:28:12;19.63;;;7.32;;
70301;SDS011;57706;56.326;43.882;2023-02-19T04:30:39;17.27;;;7.32;;
70301;SDS011;57706;56.326;43.882;2023-02-19T04:35:30;21.83;;;8.38;;
70301;SDS011;57706;56.326;43.882;2023-02-19T04:37:56;18.60;;;7.25;;
70301;SDS011;57706;56.326;43.882;2023-02-19T04:40:22;18.90;;;7.43;;
70301;SDS011;57706;56.326;43.882;2023-02-19T04:45:13;18.58;;;7.45;;
70301;SDS011;57706;56.326;43.882;2023-02-19T04:47:57;20.55;;;7.75;;
70301;SDS011;57706;56.326;43.882;2023-02-19T04:52:49;18.25;;;6.28;;
70301;SDS011;57706;56.326;43.882;2023-02-19T04:57:41;15.25;;;6.75;;
70301;SDS011;57706;56.326;43.882;2023-02-19T05:00:07;18.73;;;7.35;;
70301;SDS011;57706;56.326;43.882;2023-02-19T05:02:33;16.30;;;6.75;;
70301;SDS011;57706;56.326;43.882;2023-02-19T05:07:25;22.40;;;7.82;;
70301;SDS011;57706;56.326;43.882;2023-02-19T05:09:51;17.02;;;7.03;;
70301;SDS011;57706;56.326;43.882;2023-02-19T05:14:43;16.33;;;7.22;;
70301;SDS011;57706;56.326;43.882;2023-02-19T05:17:09;16.77;;;7.75;;
70301;SDS011;57706;56.326;43.882;2023-02-19T05:19:35;19.45;;;7.78;;
70301;SDS011;57706;56.326;43.882;2023-02-19T05:22:01;19.02;;;7.72;;
70301;SDS011;57706;56.326;43.882;2023-02-19T05:24:27;18.98;;;7.32;;
70301;SDS011;57706;56.326;43.882;2023-02-19T05:26:54;18.88;;;7.60;;
70301;SDS011;57706;56.326;43.882;2023-02-19T05:29:20;17.52;;;7.28;;
70301;SDS011;57706;56.326;43.882;2023-02-19T05:34:11;18.77;;;7.85;;
70301;SDS011;57706;56.326;43.882;2023-02-19T05:39:03;20.52;;;7.07;;
70301;SDS011;57706;56.326;43.882;2023-02-19T05:41:30;18.08;;;7.35;;
70301;SDS011;57706;56.326;43.882;2023-02-19T05:43:56;17.63;;;7.43;;
70301;SDS011;57706;56.326;43.882;2023-02-19T05:46:23;17.35;;;7.53;;
70301;SDS011;57706;56.326;43.882;2023-02-19T05:49:09;17.85;;;7.88;;
70301;SDS011;57706;56.326;43.882;2023-02-19T05:51:35;20.40;;;8.13;;
70301;SDS011;57706;56.326;43.882;2023-02-19T05:54:19;19.65;;;7.57;;
70301;SDS011;57706;56.326;43.882;2023-02-19T05:56:45;18.15;;;7.55;;
70301;SDS011;57706;56.326;43.882;2023-02-19T06:01:42;21.60;;;8.90;;
70301;SDS011;57706;56.326;43.882;2023-02-19T06:04:09;20.50;;;7.75;;
70301;SDS011;57706;56.326;43.882;2023-02-19T06:06:35;19.55;;;8.27;;
70301;SDS011;57706;56.326;43.882;2023-02-19T06:09:02;20.63;;;8.80;;
70301;SDS011;57706;56.326;43.882;2023-02-19T06:11:47;19.67;;;7.85;;
70301;SDS011;57706;56.326;43.882;2023-02-19T06:14:13;20.38;;;7.57;;
70301;SDS011;57706;56.326;43.882;2023-02-19T06:16:39;16.73;;;7.95;;
70301;SDS011;57706;56.326;43.882;2023-02-19T06:19:05;17.42;;;7.40;;
70301;SDS011;57706;56.326;43.882;2023-02-19T06:21:31;17.30;;;8.15;;
70301;SDS011;57706;56.326;43.882;2023-02-19T06:23:57;18.33;;;8.35;;
70301;SDS011;57706;56.326;43.882;2023-02-19T06:26:23;18.08;;;8.07;;
70301;SDS011;57706;56.326;43.882;2023-02-19T06:29:08;19.95;;;8.35;;
70301;SDS011;57706;56.326;43.882;2023-02-19T06:31:34;16.52;;;7.93;;
70301;SDS011;57706;56.326;43.882;2023-02-19T06:34:02;19.55;;;8.57;;
70301;SDS011;57706;56.326;43.882;2023-02-19T06:36:28;21.48;;;8.38;;
70301;SDS011;57706;56.326;43.882;2023-02-19T06:38:58;17.92;;;8.07;;
70301;SDS011;57706;56.326;43.882;2023-02-19T06:41:24;17.40;;;7.97;;
70301;SDS011;57706;56.326;43.882;2023-02-19T06:43:50;18.42;;;7.80;;
70301;SDS011;57706;56.326;43.882;2023-02-19T06:46:16;19.63;;;9.20;;
70301;SDS011;57706;56.326;43.882;2023-02-19T06:48:42;24.13;;;8.95;;
70301;SDS011;57706;56.326;43.882;2023-02-19T06:51:13;19.55;;;8.93;;
70301;SDS011;57706;56.326;43.882;2023-02-19T06:53:40;17.92;;;8.68;;
70301;SDS011;57706;56.326;43.882;2023-02-19T06:56:18;17.48;;;8.90;;
70301;SDS011;57706;56.326;43.882;2023-02-19T06:59:00;17.63;;;8.85;;
70301;SDS011;57706;56.326;43.882;2023-02-19T07:01:27;19.55;;;9.43;;
70301;SDS011;57706;56.326;43.882;2023-02-19T07:03:55;19.42;;;9.65;;
70301;SDS011;57706;56.326;43.882;2023-02-19T07:06:22;20.42;;;9.45;;
70301;SDS011;57706;56.326;43.882;2023-02-19T07:08:50;19.10;;;9.82;;
70301;SDS011;57706;56.326;43.882;2023-02-19T07:11:16;18.73;;;10.57;;
70301;SDS011;57706;56.326;43.882;2023-02-19T07:13:45;18.13;;;10.30;;
70301;SDS011;57706;56.326;43.882;2023-02-19T07:16:11;16.48;;;9.80;;
70301;SDS011;57706;56.326;43.882;2023-02-19T07:18:38;18.95;;;10.88;;
70301;SDS011;57706;56.326;43.882;2023-02-19T07:21:05;17.35;;;9.75;;
70301;SDS011;57706;56.326;43.882;2023-02-19T07:23:33;16.98;;;9.88;;
70301;SDS011;57706;56.326;43.882;2023-02-19T07:25:59;15.63;;;9.80;;
70301;SDS011;57706;56.326;43.882;2023-02-19T07:28:25;14.27;;;9.13;;
70301;SDS011;57706;56.326;43.882;2023-02-19T07:30:51;15.00;;;8.52;;
70301;SDS011;57706;56.326;43.882;2023-02-19T07:33:17;17.90;;;9.98;;
70301;SDS011;57706;56.326;43.882;2023-02-19T07:35:46;15.15;;;9.27;;
70301;SDS011;57706;56.326;43.882;2023-02-19T07:38:16;15.93;;;9.95;;
70301;SDS011;57706;56.326;43.882;2023-02-19T07:40:53;17.58;;;9.45;;
70301;SDS011;57706;56.326;43.882;2023-02-19T07:43:20;18.67;;;9.07;;
70301;SDS011;57706;56.326;43.882;2023-02-19T07:45:47;23.45;;;9.73;;
70301;SDS011;57706;56.326;43.882;2023-02-19T07:48:13;15.45;;;9.57;;
70301;SDS011;57706;56.326;43.882;2023-02-19T07:50:39;13.70;;;8.80;;
70301;SDS011;57706;56.326;43.882;2023-02-19T07:53:05;19.58;;;9.35;;
70301;SDS011;57706;56.326;43.882;2023-02-19T07:55:32;14.73;;;8.38;;
70301;SDS011;57706;56.326;43.882;2023-02-19T07:57:58;19.17;;;9.63;;
70301;SDS011;57706;56.326;43.882;2023-02-19T08:00:25;18.40;;;9.77;;
70301;SDS011;57706;56.326;43.882;2023-02-19T08:02:52;16.65;;;9.15;;
70301;SDS011;57706;56.326;43.882;2023-02-19T08:05:24;20.40;;;9.82;;
70301;SDS011;57706;56.326;43.882;2023-02-19T08:07:55;18.85;;;9.38;;
70301;SDS011;57706;56.326;43.882;2023-02-19T08:10:21;19.27;;;9.88;;
70301;SDS011;57706;56.326;43.882;2023-02-19T08:13:07;18.77;;;10.00;;
70301;SDS011;57706;56.326;43.882;2023-02-19T08:18:19;17.55;;;8.93;;
70301;SDS011;57706;56.326;43.882;2023-02-19T08:20:50;16.48;;;9.57;;
70301;SDS011;57706;56.326;43.882;2023-02-19T08:23:16;14.40;;;8.80;;
70301;SDS011;57706;56.326;43.882;2023-02-19T08:25:42;19.15;;;9.73;;
70301;SDS011;57706;56.326;43.882;2023-02-19T08:28:09;14.85;;;8.57;;
70301;SDS011;57706;56.326;43.882;2023-02-19T08:30:36;20.25;;;10.20;;
70301;SDS011;57706;56.326;43.882;2023-02-19T08:33:21;16.33;;;10.38;;
70301;SDS011;57706;56.326;43.882;2023-02-19T08:35:47;19.58;;;9.40;;
70301;SDS011;57706;56.326;43.882;2023-02-19T08:38:13;15.80;;;9.52;;
70301;SDS011;57706;56.326;43.882;2023-02-19T08:40:41;16.77;;;9.65;;
70301;SDS011;57706;56.326;43.882;2023-02-19T08:43:12;17.35;;;9.50;;
70301;SDS011;57706;56.326;43.882;2023-02-19T08:45:40;17.15;;;9.35;;
70301;SDS011;57706;56.326;43.882;2023-02-19T08:48:09;15.43;;;9.15;;
70301;SDS011;57706;56.326;43.882;2023-02-19T08:50:35;15.38;;;10.13;;
70301;SDS011;57706;56.326;43.882;2023-02-19T08:53:02;18.58;;;9.88;;
70301;SDS011;57706;56.326;43.882;2023-02-19T08:55:29;15.63;;;9.65;;
70301;SDS011;57706;56.326;43.882;2023-02-19T08:57:55;19.75;;;10.82;;
70301;SDS011;57706;56.326;43.882;2023-02-19T09:00:21;16.55;;;10.18;;
70301;SDS011;57706;56.326;43.882;2023-02-19T09:02:47;17.88;;;10.13;;
70301;SDS011;57706;56.326;43.882;2023-02-19T09:05:14;17.15;;;9.15;;
70301;SDS011;57706;56.326;43.882;2023-02-19T09:07:40;17.88;;;9.85;;
70301;SDS011;57706;56.326;43.882;2023-02-19T09:10:06;14.73;;;8.88;;
70301;SDS011;57706;56.326;43.882;2023-02-19T09:12:34;18.08;;;10.20;;
70301;SDS011;57706;56.326;43.882;2023-02-19T09:15:00;16.67;;;10.55;;
70301;SDS011;57706;56.326;43.882;2023-02-19T09:17:25;18.50;;;9.98;;
70301;SDS011;57706;56.326;43.882;2023-02-19T09:19:51;17.60;;;10.30;;
70301;SDS011;57706;56.326;43.882;2023-02-19T09:22:17;21.40;;;10.95;;
70301;SDS011;57706;56.326;43.882;2023-02-19T09:24:43;17.05;;;9.88;;
70301;SDS011;57706;56.326;43.882;2023-02-19T09:27:13;19.30;;;10.90;;
70301;SDS011;57706;56.326;43.882;2023-02-19T09:29:41;16.90;;;10.45;;
70301;SDS011;57706;56.326;43.882;2023-02-19T09:32:07;17.75;;;9.90;;
70301;SDS011;57706;56.326;43.882;2023-02-19T09:34:32;19.83;;;10.88;;
70301;SDS011;57706;56.326;43.882;2023-02-19T09:36:58;18.95;;;9.38;;
70301;SDS011;57706;56.326;43.882;2023-02-19T09:39:24;21.95;;;9.27;;
70301;SDS011;57706;56.326;43.882;2023-02-19T09:44:24;19.45;;;9.55;;
70301;SDS011;57706;56.326;43.882;2023-02-19T09:46:54;15.43;;;8.70;;
70301;SDS011;57706;56.326;43.882;2023-02-19T09:54:37;15.90;;;8.95;;
70301;SDS011;57706;56.326;43.882;2023-02-19T09:57:05;15.10;;;8.93;;
70301;SDS011;57706;56.326;43.882;2023-02-19T09:59:45;16.70;;;9.55;;
70301;SDS011;57706;56.326;43.882;2023-02-19T10:02:15;12.63;;;8.18;;
70301;SDS011;57706;56.326;43.882;2023-02-19T10:04:44;12.90;;;8.23;;
70301;SDS011;57706;56.326;43.882;2023-02-19T10:07:14;12.88;;;8.05;;
70301;SDS011;57706;56.326;43.882;2023-02-19T10:09:43;16.20;;;9.10;;
70301;SDS011;57706;56.326;43.882;2023-02-19T10:12:13;15.90;;;8.00;;
70301;SDS011;57706;56.326;43.882;2023-02-19T10:14:46;13.15;;;8.18;;
70301;SDS011;57706;56.326;43.882;2023-02-19T10:17:23;15.57;;;8.35;;
70301;SDS011;57706;56.326;43.882;2023-02-19T10:20:16;14.20;;;8.05;;
70301;SDS011;57706;56.326;43.882;2023-02-19T10:22:44;12.63;;;7.35;;
70301;SDS011;57706;56.326;43.882;2023-02-19T10:25:14;13.10;;;7.47;;
70301;SDS011;57706;56.326;43.882;2023-02-19T10:27:41;14.32;;;8.27;;
70301;SDS011;57706;56.326;43.882;2023-02-19T10:30:19;12.57;;;7.97;;
70301;SDS011;57706;56.326;43.882;2023-02-19T10:33:01;14.50;;;7.90;;
70301;SDS011;57706;56.326;43.882;2023-02-19T10:35:35;10.93;;;7.75;;
70301;SDS011;57706;56.326;43.882;2023-02-19T10:38:12;13.50;;;7.97;;
70301;SDS011;57706;56.326;43.882;2023-02-19T10:40:43;15.68;;;8.23;;
70301;SDS011;57706;56.326;43.882;2023-02-19T10:43:18;14.13;;;8.70;;
70301;SDS011;57706;56.326;43.882;2023-02-19T10:45:55;13.10;;;7.85;;
70301;SDS011;57706;56.326;43.882;2023-02-19T10:48:24;13.15;;;7.75;;
70301;SDS011;57706;56.326;43.882;2023-02-19T10:50:55;13.85;;;7.82;;
70301;SDS011;57706;56.326;43.882;2023-02-19T10:53:45;16.58;;;7.93;;
70301;SDS011;57706;56.326;43.882;2023-02-19T10:58:46;14.30;;;8.70;;
70301;SDS011;57706;56.326;43.882;2023-02-19T11:01:19;14.27;;;8.07;;
70301;SDS011;57706;56.326;43.882;2023-02-19T11:03:52;12.35;;;7.55;;
70301;SDS011;57706;56.326;43.882;2023-02-19T11:06:40;14.38;;;8.10;;
70301;SDS011;57706;56.326;43.882;2023-02-19T11:09:15;12.82;;;7.57;;
70301;SDS011;57706;56.326;43.882;2023-02-19T11:11:48;13.63;;;7.68;;
70301;SDS011;57706;56.326;43.882;2023-02-19T11:14:17;13.77;;;7.25;;
70301;SDS011;57706;56.326;43.882;2023-02-19T11:16:48;16.55;;;7.85;;
70301;SDS011;57706;56.326;43.882;2023-02-19T11:21:47;16.40;;;6.65;;
70301;SDS011;57706;56.326;43.882;2023-02-19T11:24:33;14.32;;;9.05;;
70301;SDS011;57706;56.326;43.882;2023-02-19T11:29:31;13.85;;;7.03;;
70301;SDS011;57706;56.326;43.882;2023-02-19T11:32:21;11.48;;;6.78;;
70301;SDS011;57706;56.326;43.882;2023-02-19T11:34:49;16.33;;;7.30;;
70301;SDS011;57706;56.326;43.882;2023-02-19T11:45:51;12.43;;;7.72;;
70301;SDS011;57706;56.326;43.882;2023-02-19T11:48:34;13.48;;;7.60;;
70301;SDS011;57706;56.326;43.882;2023-02-19T11:53:47;18.73;;;7.63;;
70301;SDS011;57706;56.326;43.882;2023-02-19T11:56:25;12.23;;;7.88;;
70301;SDS011;57706;56.326;43.882;2023-02-19T11:59:06;16.67;;;8.82;;
70301;SDS011;57706;56.326;43.882;2023-02-19T12:07:48;12.02;;;7.25;;
70301;SDS011;57706;56.326;43.882;2023-02-19T12:21:30;16.33;;;7.72;;
70301;SDS011;57706;56.326;43.882;2023-02-19T12:45:23;16.17;;;7.53;;
70301;SDS011;57706;56.326;43.882;2023-02-19T12:50:24;23.60;;;8.40;;
70301;SDS011;57706;56.326;43.882;2023-02-19T12:52:54;17.25;;;8.00;;
70301;SDS011;57706;56.326;43.882;2023-02-19T12:55:31;20.33;;;7.10;;
70301;SDS011;57706;56.326;43.882;2023-02-19T12:58:01;18.20;;;8.43;;
70301;SDS011;57706;56.326;43.882;2023-02-19T13:00:34;17.38;;;7.20;;
70301;SDS011;57706;56.326;43.882;2023-02-19T13:08:29;16.50;;;7.38;;
70301;SDS011;57706;56.326;43.882;2023-02-19T13:11:07;17.02;;;7.45;;
70301;SDS011;57706;56.326;43.882;2023-02-19T13:13:44;19.77;;;8.15;;
70301;SDS011;57706;56.326;43.882;2023-02-19T13:16:13;20.85;;;8.00;;
70301;SDS011;57706;56.326;43.882;2023-02-19T13:21:08;21.50;;;7.97;;
70301;SDS011;57706;56.326;43.882;2023-02-19T13:23:35;25.90;;;8.40;;
70301;SDS011;57706;56.326;43.882;2023-02-19T13:35:17;23.00;;;8.07;;
70301;SDS011;57706;56.326;43.882;2023-02-19T13:37:47;25.95;;;10.40;;
70301;SDS011;57706;56.326;43.882;2023-02-19T13:42:55;20.35;;;8.18;;
70301;SDS011;57706;56.326;43.882;2023-02-19T13:45:42;19.77;;;8.20;;
70301;SDS011;57706;56.326;43.882;2023-02-19T13:50:48;16.75;;;7.65;;
70301;SDS011;57706;56.326;43.882;2023-02-19T14:12:00;19.63;;;7.18;;
70301;SDS011;57706;56.326;43.882;2023-02-19T14:19:43;17.65;;;6.82;;
70301;SDS011;57706;56.326;43.882;2023-02-19T14:28:01;18.55;;;8.20;;
70301;SDS011;57706;56.326;43.882;2023-02-19T14:30:44;18.90;;;7.45;;
70301;SDS011;57706;56.326;43.882;2023-02-19T14:33:39;17.77;;;7.88;;
70301;SDS011;57706;56.326;43.882;2023-02-19T14:39:02;20.48;;;7.88;;
70301;SDS011;57706;56.326;43.882;2023-02-19T14:41:36;18.17;;;7.45;;
70301;SDS011;57706;56.326;43.882;2023-02-19T14:44:04;17.83;;;8.10;;
70301;SDS011;57706;56.326;43.882;2023-02-19T14:46:38;21.27;;;8.43;;
70301;SDS011;57706;56.326;43.882;2023-02-19T14:52:05;20.63;;;8.48;;
70301;SDS011;57706;56.326;43.882;2023-02-19T14:54:41;20.92;;;7.15;;
70301;SDS011;57706;56.326;43.882;2023-02-19T14:57:22;19.52;;;8.32;;
70301;SDS011;57706;56.326;43.882;2023-02-19T15:00:13;18.65;;;6.90;;
70301;SDS011;57706;56.326;43.882;2023-02-19T15:02:44;20.70;;;7.47;;
70301;SDS011;57706;56.326;43.882;2023-02-19T15:07:43;16.15;;;7.32;;
70301;SDS011;57706;56.326;43.882;2023-02-19T15:10:10;23.50;;;7.63;;
70301;SDS011;57706;56.326;43.882;2023-02-19T15:12:45;16.52;;;7.00;;
70301;SDS011;57706;56.326;43.882;2023-02-19T15:15:23;17.95;;;8.40;;
70301;SDS011;57706;56.326;43.882;2023-02-19T15:17:52;19.15;;;7.88;;
70301;SDS011;57706;56.326;43.882;2023-02-19T15:20:22;22.00;;;9.18;;
70301;SDS011;57706;56.326;43.882;2023-02-19T15:22:50;28.95;;;8.95;;
70301;SDS011;57706;56.326;43.882;2023-02-19T15:25:20;21.30;;;8.35;;
70301;SDS011;57706;56.326;43.882;2023-02-19T15:27:48;22.13;;;8.32;;
70301;SDS011;57706;56.326;43.882;2023-02-19T15:30:25;17.63;;;7.68;;
70301;SDS011;57706;56.326;43.882;2023-02-19T15:32:57;23.55;;;9.15;;
70301;SDS011;57706;56.326;43.882;2023-02-19T15:35:25;27.40;;;9.27;;
70301;SDS011;57706;56.326;43.882;2023-02-19T15:37:53;20.52;;;8.75;;
70301;SDS011;57706;56.326;43.882;2023-02-19T15:40:21;19.20;;;8.68;;
70301;SDS011;57706;56.326;43.882;2023-02-19T15:42:53;21.45;;;8.20;;
70301;SDS011;57706;56.326;43.882;2023-02-19T15:45:23;25.13;;;8.13;;
70301;SDS011;57706;56.326;43.882;2023-02-19T15:53:13;19.02;;;7.07;;
70301;SDS011;57706;56.326;43.882;2023-02-19T15:58:37;23.45;;;9.40;;
70301;SDS011;57706;56.326;43.882;2023-02-19T16:03:50;20.58;;;8.32;;
70301;SDS011;57706;56.326;43.882;2023-02-19T16:06:18;26.65;;;9.40;;
70301;SDS011;57706;56.326;43.882;2023-02-19T16:13:48;25.98;;;9.90;;
70301;SDS011;57706;56.326;43.882;2023-02-19T16:16:25;22.05;;;8.77;;
70301;SDS011;57706;56.326;43.882;2023-02-19T16:18:55;23.33;;;8.75;;
70301;SDS011;57706;56.326;43.882;2023-02-19T16:21:22;23.05;;;9.10;;
70301;SDS011;57706;56.326;43.882;2023-02-19T16:23:51;23.30;;;9.60;;
70301;SDS011;57706;56.326;43.882;2023-02-19T16:26:23;24.42;;;8.90;;
70301;SDS011;57706;56.326;43.882;2023-02-19T16:28:52;34.70;;;10.55;;
70301;SDS011;57706;56.326;43.882;2023-02-19T16:31:20;33.45;;;10.88;;
70301;SDS011;57706;56.326;43.882;2023-02-19T16:33:48;22.85;;;9.77;;
70301;SDS011;57706;56.326;43.882;2023-02-19T16:36:33;21.08;;;8.45;;
70301;SDS011;57706;56.326;43.882;2023-02-19T16:41:32;21.13;;;9.18;;
70301;SDS011;57706;56.326;43.882;2023-02-19T16:43:59;23.52;;;9.32;;
70301;SDS011;57706;56.326;43.882;2023-02-19T16:46:30;26.00;;;10.40;;
70301;SDS011;57706;56.326;43.882;2023-02-19T16:48:57;27.00;;;9.73;;
70301;SDS011;57706;56.326;43.882;2023-02-19T16:51:24;25.35;;;9.13;;
70301;SDS011;57706;56.326;43.882;2023-02-19T16:53:51;27.45;;;10.00;;
70301;SDS011;57706;56.326;43.882;2023-02-19T16:56:18;27.95;;;10.57;;
70301;SDS011;57706;56.326;43.882;2023-02-19T16:58:50;27.20;;;10.85;;
70301;SDS011;57706;56.326;43.882;2023-02-19T17:01:16;24.80;;;10.15;;
70301;SDS011;57706;56.326;43.882;2023-02-19T17:06:08;29.95;;;11.02;;
70301;SDS011;57706;56.326;43.882;2023-02-19T17:08:36;32.85;;;10.23;;
70301;SDS011;57706;56.326;43.882;2023-02-19T17:11:05;22.13;;;8.95;;
70301;SDS011;57706;56.326;43.882;2023-02-19T17:13:35;27.67;;;10.15;;
70301;SDS011;57706;56.326;43.882;2023-02-19T17:16:01;23.10;;;8.73;;
70301;SDS011;57706;56.326;43.882;2023-02-19T17:18:27;29.48;;;11.25;;
70301;SDS011;57706;56.326;43.882;2023-02-19T17:23:49;29.45;;;11.73;;
70301;SDS011;57706;56.326;43.882;2023-02-19T17:26:17;36.78;;;10.48;;
70301;SDS011;57706;56.326;43.882;2023-02-19T17:28:45;29.50;;;11.15;;
70301;SDS011;57706;56.326;43.882;2023-02-19T17:31:11;33.55;;;11.63;;
70301;SDS011;57706;56.326;43.882;2023-02-19T17:33:39;31.45;;;11.38;;
70301;SDS011;57706;56.326;43.882;2023-02-19T17:36:05;30.05;;;11.77;;
70301;SDS011;57706;56.326;43.882;2023-02-19T17:38:32;31.67;;;11.90;;
70301;SDS011;57706;56.326;43.882;2023-02-19T17:43:23;29.98;;;10.65;;
70301;SDS011;57706;56.326;43.882;2023-02-19T17:45:50;27.55;;;10.05;;
70301;SDS011;57706;56.326;43.882;2023-02-19T17:48:16;30.20;;;10.98;;
70301;SDS011;57706;56.326;43.882;2023-02-19T17:50:42;32.08;;;12.73;;
70301;SDS011;57706;56.326;43.882;2023-02-19T17:55:33;27.50;;;9.77;;
70301;SDS011;57706;56.326;43.882;2023-02-19T18:00:26;25.33;;;9.60;;
70301;SDS011;57706;56.326;43.882;2023-02-19T18:02:54;30.00;;;10.98;;
70301;SDS011;57706;56.326;43.882;2023-02-19T18:05:20;34.17;;;13.93;;
70301;SDS011;57706;56.326;43.882;2023-02-19T18:07:47;38.25;;;13.25;;
70301;SDS011;57706;56.326;43.882;2023-02-19T18:10:15;36.20;;;10.90;;
70301;SDS011;57706;56.326;43.882;2023-02-19T18:12:42;39.03;;;13.70;;
70301;SDS011;57706;56.326;43.882;2023-02-19T18:15:10;42.95;;;13.65;;
70301;SDS011;57706;56.326;43.882;2023-02-19T18:20:07;41.08;;;13.13;;
70301;SDS011;57706;56.326;43.882;2023-02-19T18:22:33;35.95;;;10.30;;
70301;SDS011;57706;56.326;43.882;2023-02-19T18:24:59;41.55;;;12.60;;